sensor_id;sensor_type;location;lat;lon;timestamp;P1;durP1;ratioP1;P2;durP2;ratioP2
75342;SDS011;63936;51.006;13.764;2022-12-07T00:00:02;13;;;7;;
75342;SDS011;63936;51.006;13.764;2022-12-07T00:02:01;13;;;7;;
75342;SDS011;63936;51.006;13.764;2022-12-07T00:04:02;13;;;7;;
75342;SDS011;63936;51.006;13.764;2022-12-07T00:06:02;11;;;6;;
75342;SDS011;63936;51.006;13.764;2022-12-07T00:08:01;12;;;7;;
75342;SDS011;63936;51.006;13.764;2022-12-07T00:10:02;13;;;7;;
75342;SDS011;63936;51.006;13.764;2022-12-07T00:12:02;13;;;7;;
75342;SDS011;63936;51.006;13.764;2022-12-07T00:14:03;12;;;7;;
75342;SDS011;63936;51.006;13.764;2022-12-07T00:16:01;12;;;7;;
75342;SDS011;63936;51.006;13.764;2022-12-07T00:18:01;12;;;6;;
75342;SDS011;63936;51.006;13.764;2022-12-07T00:20:01;13;;;7;;
75342;SDS011;63936;51.006;13.764;2022-12-07T00:22:01;14;;;7;;
75342;SDS011;63936;51.006;13.764;2022-12-07T00:24:02;13;;;7;;
75342;SDS011;63936;51.006;13.764;2022-12-07T00:26:03;12;;;7;;
75342;SDS011;63936;51.006;13.764;2022-12-07T00:28:01;13;;;7;;
75342;SDS011;63936;51.006;13.764;2022-12-07T00:30:02;12;;;6;;
75342;SDS011;63936;51.006;13.764;2022-12-07T00:32:01;12;;;6;;
75342;SDS011;63936;51.006;13.764;2022-12-07T00:34:01;12;;;6;;
75342;SDS011;63936;51.006;13.764;2022-12-07T00:36:02;13;;;7;;
75342;SDS011;63936;51.006;13.764;2022-12-07T00:38:02;13;;;6;;
75342;SDS011;63936;51.006;13.764;2022-12-07T00:40:01;13;;;7;;
75342;SDS011;63936;51.006;13.764;2022-12-07T00:42:01;13;;;7;;
75342;SDS011;63936;51.006;13.764;2022-12-07T00:44:01;12;;;6;;
75342;SDS011;63936;51.006;13.764;2022-12-07T00:46:01;12;;;6;;
75342;SDS011;63936;51.006;13.764;2022-12-07T00:48:01;13;;;7;;
75342;SDS011;63936;51.006;13.764;2022-12-07T00:50:02;12;;;6;;
75342;SDS011;63936;51.006;13.764;2022-12-07T00:52:01;11;;;6;;
75342;SDS011;63936;51.006;13.764;2022-12-07T00:54:01;11;;;6;;
75342;SDS011;63936;51.006;13.764;2022-12-07T00:56:04;12;;;6;;
75342;SDS011;63936;51.006;13.764;2022-12-07T00:58:01;11;;;6;;
75342;SDS011;63936;51.006;13.764;2022-12-07T01:00:01;13;;;7;;
75342;SDS011;63936;51.006;13.764;2022-12-07T01:02:04;14;;;7;;
75342;SDS011;63936;51.006;13.764;2022-12-07T01:04:05;15;;;7;;
75342;SDS011;63936;51.006;13.764;2022-12-07T01:06:03;14;;;7;;
75342;SDS011;63936;51.006;13.764;2022-12-07T01:08:03;14;;;7;;
75342;SDS011;63936;51.006;13.764;2022-12-07T01:10:04;13;;;7;;
75342;SDS011;63936;51.006;13.764;2022-12-07T01:12:03;12;;;6;;
75342;SDS011;63936;51.006;13.764;2022-12-07T01:14:02;11;;;6;;
75342;SDS011;63936;51.006;13.764;2022-12-07T01:16:03;12;;;7;;
75342;SDS011;63936;51.006;13.764;2022-12-07T01:18:02;13;;;7;;
75342;SDS011;63936;51.006;13.764;2022-12-07T01:20:04;13;;;7;;
75342;SDS011;63936;51.006;13.764;2022-12-07T01:22:03;14;;;6;;
75342;SDS011;63936;51.006;13.764;2022-12-07T01:24:02;16;;;8;;
75342;SDS011;63936;51.006;13.764;2022-12-07T01:26:02;13;;;7;;
75342;SDS011;63936;51.006;13.764;2022-12-07T01:28:01;13;;;7;;
75342;SDS011;63936;51.006;13.764;2022-12-07T01:30:05;14;;;7;;
75342;SDS011;63936;51.006;13.764;2022-12-07T01:32:02;15;;;8;;
75342;SDS011;63936;51.006;13.764;2022-12-07T01:34:02;14;;;7;;
75342;SDS011;63936;51.006;13.764;2022-12-07T01:36:07;14;;;7;;
75342;SDS011;63936;51.006;13.764;2022-12-07T01:38:03;13;;;7;;
75342;SDS011;63936;51.006;13.764;2022-12-07T01:40:04;16;;;7;;
75342;SDS011;63936;51.006;13.764;2022-12-07T01:42:02;14;;;7;;
75342;SDS011;63936;51.006;13.764;2022-12-07T01:44:11;13;;;7;;
75342;SDS011;63936;51.006;13.764;2022-12-07T01:46:03;14;;;7;;
75342;SDS011;63936;51.006;13.764;2022-12-07T01:48:02;13;;;7;;
75342;SDS011;63936;51.006;13.764;2022-12-07T01:50:03;11;;;6;;
75342;SDS011;63936;51.006;13.764;2022-12-07T01:52:06;11;;;6;;
75342;SDS011;63936;51.006;13.764;2022-12-07T01:54:02;14;;;6;;
75342;SDS011;63936;51.006;13.764;2022-12-07T01:56:02;12;;;6;;
75342;SDS011;63936;51.006;13.764;2022-12-07T01:58:02;11;;;6;;
75342;SDS011;63936;51.006;13.764;2022-12-07T02:00:03;11;;;5;;
75342;SDS011;63936;51.006;13.764;2022-12-07T02:02:02;9;;;5;;
75342;SDS011;63936;51.006;13.764;2022-12-07T02:04:01;10;;;5;;
75342;SDS011;63936;51.006;13.764;2022-12-07T02:06:01;10;;;5;;
75342;SDS011;63936;51.006;13.764;2022-12-07T02:08:01;10;;;5;;
75342;SDS011;63936;51.006;13.764;2022-12-07T02:10:12;10;;;5;;
75342;SDS011;63936;51.006;13.764;2022-12-07T02:12:01;10;;;5;;
75342;SDS011;63936;51.006;13.764;2022-12-07T02:14:01;9;;;5;;
75342;SDS011;63936;51.006;13.764;2022-12-07T02:16:06;9;;;5;;
75342;SDS011;63936;51.006;13.764;2022-12-07T02:18:07;8;;;4;;
75342;SDS011;63936;51.006;13.764;2022-12-07T02:20:07;10;;;5;;
75342;SDS011;63936;51.006;13.764;2022-12-07T02:22:06;12;;;7;;
75342;SDS011;63936;51.006;13.764;2022-12-07T02:24:07;15;;;11;;
75342;SDS011;63936;51.006;13.764;2022-12-07T02:26:06;10;;;6;;
75342;SDS011;63936;51.006;13.764;2022-12-07T02:28:03;8;;;5;;
75342;SDS011;63936;51.006;13.764;2022-12-07T02:30:03;8;;;5;;
75342;SDS011;63936;51.006;13.764;2022-12-07T02:32:03;12;;;7;;
75342;SDS011;63936;51.006;13.764;2022-12-07T02:34:03;10;;;6;;
75342;SDS011;63936;51.006;13.764;2022-12-07T02:36:02;10;;;6;;
75342;SDS011;63936;51.006;13.764;2022-12-07T02:38:02;8;;;5;;
75342;SDS011;63936;51.006;13.764;2022-12-07T02:40:04;13;;;7;;
75342;SDS011;63936;51.006;13.764;2022-12-07T02:42:02;15;;;11;;
75342;SDS011;63936;51.006;13.764;2022-12-07T02:44:02;10;;;5;;
75342;SDS011;63936;51.006;13.764;2022-12-07T02:46:03;10;;;5;;
75342;SDS011;63936;51.006;13.764;2022-12-07T02:48:01;14;;;9;;
75342;SDS011;63936;51.006;13.764;2022-12-07T02:50:02;12;;;7;;
75342;SDS011;63936;51.006;13.764;2022-12-07T02:52:02;12;;;7;;
75342;SDS011;63936;51.006;13.764;2022-12-07T02:54:02;10;;;5;;
75342;SDS011;63936;51.006;13.764;2022-12-07T02:56:03;11;;;6;;
75342;SDS011;63936;51.006;13.764;2022-12-07T02:58:06;10;;;6;;
75342;SDS011;63936;51.006;13.764;2022-12-07T03:00:04;10;;;6;;
75342;SDS011;63936;51.006;13.764;2022-12-07T03:02:03;10;;;5;;
75342;SDS011;63936;51.006;13.764;2022-12-07T03:04:02;12;;;7;;
75342;SDS011;63936;51.006;13.764;2022-12-07T03:06:08;14;;;9;;
75342;SDS011;63936;51.006;13.764;2022-12-07T03:08:04;10;;;6;;
75342;SDS011;63936;51.006;13.764;2022-12-07T03:10:03;12;;;5;;
75342;SDS011;63936;51.006;13.764;2022-12-07T03:12:04;10;;;5;;
75342;SDS011;63936;51.006;13.764;2022-12-07T03:14:02;12;;;6;;
75342;SDS011;63936;51.006;13.764;2022-12-07T03:16:02;11;;;5;;
75342;SDS011;63936;51.006;13.764;2022-12-07T03:18:01;12;;;7;;
75342;SDS011;63936;51.006;13.764;2022-12-07T03:20:03;12;;;7;;
75342;SDS011;63936;51.006;13.764;2022-12-07T03:22:02;12;;;6;;
75342;SDS011;63936;51.006;13.764;2022-12-07T03:24:04;12;;;6;;
75342;SDS011;63936;51.006;13.764;2022-12-07T03:26:01;13;;;6;;
75342;SDS011;63936;51.006;13.764;2022-12-07T03:28:02;12;;;6;;
75342;SDS011;63936;51.006;13.764;2022-12-07T03:30:02;11;;;6;;
75342;SDS011;63936;51.006;13.764;2022-12-07T03:32:02;12;;;6;;
75342;SDS011;63936;51.006;13.764;2022-12-07T03:34:02;12;;;6;;
75342;SDS011;63936;51.006;13.764;2022-12-07T03:36:03;12;;;6;;
75342;SDS011;63936;51.006;13.764;2022-12-07T03:38:03;13;;;6;;
75342;SDS011;63936;51.006;13.764;2022-12-07T03:40:03;13;;;6;;
75342;SDS011;63936;51.006;13.764;2022-12-07T03:42:02;13;;;6;;
75342;SDS011;63936;51.006;13.764;2022-12-07T03:44:02;13;;;6;;
75342;SDS011;63936;51.006;13.764;2022-12-07T03:46:04;12;;;6;;
75342;SDS011;63936;51.006;13.764;2022-12-07T03:48:02;12;;;6;;
75342;SDS011;63936;51.006;13.764;2022-12-07T03:50:04;12;;;6;;
75342;SDS011;63936;51.006;13.764;2022-12-07T03:52:02;12;;;6;;
75342;SDS011;63936;51.006;13.764;2022-12-07T03:54:02;12;;;6;;
75342;SDS011;63936;51.006;13.764;2022-12-07T03:56:01;19;;;11;;
75342;SDS011;63936;51.006;13.764;2022-12-07T03:58:02;17;;;9;;
75342;SDS011;63936;51.006;13.764;2022-12-07T04:00:03;15;;;8;;
75342;SDS011;63936;51.006;13.764;2022-12-07T04:02:02;15;;;8;;
75342;SDS011;63936;51.006;13.764;2022-12-07T04:04:03;21;;;12;;
75342;SDS011;63936;51.006;13.764;2022-12-07T04:06:03;21;;;12;;
75342;SDS011;63936;51.006;13.764;2022-12-07T04:08:02;22;;;13;;
75342;SDS011;63936;51.006;13.764;2022-12-07T04:10:02;17;;;11;;
75342;SDS011;63936;51.006;13.764;2022-12-07T04:12:01;14;;;8;;
75342;SDS011;63936;51.006;13.764;2022-12-07T04:14:01;13;;;7;;
75342;SDS011;63936;51.006;13.764;2022-12-07T04:16:02;12;;;6;;
75342;SDS011;63936;51.006;13.764;2022-12-07T04:18:02;15;;;7;;
75342;SDS011;63936;51.006;13.764;2022-12-07T04:20:02;16;;;9;;
75342;SDS011;63936;51.006;13.764;2022-12-07T04:22:02;17;;;13;;
75342;SDS011;63936;51.006;13.764;2022-12-07T04:24:02;10;;;5;;
75342;SDS011;63936;51.006;13.764;2022-12-07T04:26:01;12;;;6;;
75342;SDS011;63936;51.006;13.764;2022-12-07T04:28:01;12;;;6;;
75342;SDS011;63936;51.006;13.764;2022-12-07T04:30:01;18;;;10;;
75342;SDS011;63936;51.006;13.764;2022-12-07T04:32:01;19;;;11;;
75342;SDS011;63936;51.006;13.764;2022-12-07T04:34:01;17;;;9;;
75342;SDS011;63936;51.006;13.764;2022-12-07T04:36:01;17;;;9;;
75342;SDS011;63936;51.006;13.764;2022-12-07T04:38:01;19;;;11;;
75342;SDS011;63936;51.006;13.764;2022-12-07T04:40:02;19;;;11;;
75342;SDS011;63936;51.006;13.764;2022-12-07T04:42:01;28;;;19;;
75342;SDS011;63936;51.006;13.764;2022-12-07T04:44:01;20;;;13;;
75342;SDS011;63936;51.006;13.764;2022-12-07T04:46:01;20;;;13;;
75342;SDS011;63936;51.006;13.764;2022-12-07T04:48:01;22;;;14;;
75342;SDS011;63936;51.006;13.764;2022-12-07T04:50:02;14;;;8;;
75342;SDS011;63936;51.006;13.764;2022-12-07T04:52:01;17;;;7;;
75342;SDS011;63936;51.006;13.764;2022-12-07T04:54:01;13;;;7;;
75342;SDS011;63936;51.006;13.764;2022-12-07T04:56:01;15;;;8;;
75342;SDS011;63936;51.006;13.764;2022-12-07T04:58:01;18;;;11;;
75342;SDS011;63936;51.006;13.764;2022-12-07T05:00:02;13;;;8;;
75342;SDS011;63936;51.006;13.764;2022-12-07T05:02:01;12;;;6;;
75342;SDS011;63936;51.006;13.764;2022-12-07T05:04:02;12;;;6;;
75342;SDS011;63936;51.006;13.764;2022-12-07T05:06:02;18;;;9;;
75342;SDS011;63936;51.006;13.764;2022-12-07T05:08:02;18;;;9;;
75342;SDS011;63936;51.006;13.764;2022-12-07T05:10:01;17;;;10;;
75342;SDS011;63936;51.006;13.764;2022-12-07T05:12:01;15;;;8;;
75342;SDS011;63936;51.006;13.764;2022-12-07T05:14:02;15;;;8;;
75342;SDS011;63936;51.006;13.764;2022-12-07T05:16:01;17;;;10;;
75342;SDS011;63936;51.006;13.764;2022-12-07T05:18:01;14;;;8;;
75342;SDS011;63936;51.006;13.764;2022-12-07T05:20:02;14;;;8;;
75342;SDS011;63936;51.006;13.764;2022-12-07T05:22:01;11;;;5;;
75342;SDS011;63936;51.006;13.764;2022-12-07T05:24:02;11;;;5;;
75342;SDS011;63936;51.006;13.764;2022-12-07T05:26:02;14;;;7;;
75342;SDS011;63936;51.006;13.764;2022-12-07T05:28:02;16;;;9;;
75342;SDS011;63936;51.006;13.764;2022-12-07T05:30:02;16;;;9;;
75342;SDS011;63936;51.006;13.764;2022-12-07T05:32:01;17;;;10;;
75342;SDS011;63936;51.006;13.764;2022-12-07T05:34:01;14;;;8;;
75342;SDS011;63936;51.006;13.764;2022-12-07T05:36:01;10;;;5;;
75342;SDS011;63936;51.006;13.764;2022-12-07T05:38:01;10;;;5;;
75342;SDS011;63936;51.006;13.764;2022-12-07T05:40:02;10;;;4;;
75342;SDS011;63936;51.006;13.764;2022-12-07T05:42:01;11;;;5;;
75342;SDS011;63936;51.006;13.764;2022-12-07T05:44:01;11;;;5;;
75342;SDS011;63936;51.006;13.764;2022-12-07T05:46:01;15;;;8;;
75342;SDS011;63936;51.006;13.764;2022-12-07T05:48:01;15;;;9;;
75342;SDS011;63936;51.006;13.764;2022-12-07T05:50:02;15;;;9;;
75342;SDS011;63936;51.006;13.764;2022-12-07T05:52:02;16;;;8;;
75342;SDS011;63936;51.006;13.764;2022-12-07T05:54:02;11;;;6;;
75342;SDS011;63936;51.006;13.764;2022-12-07T05:56:02;11;;;6;;
75342;SDS011;63936;51.006;13.764;2022-12-07T05:58:01;10;;;6;;
75342;SDS011;63936;51.006;13.764;2022-12-07T06:00:02;12;;;8;;
75342;SDS011;63936;51.006;13.764;2022-12-07T06:02:02;12;;;8;;
75342;SDS011;63936;51.006;13.764;2022-12-07T06:04:01;8;;;4;;
75342;SDS011;63936;51.006;13.764;2022-12-07T06:06:01;8;;;4;;
75342;SDS011;63936;51.006;13.764;2022-12-07T06:08:01;12;;;6;;
75342;SDS011;63936;51.006;13.764;2022-12-07T06:10:02;9;;;5;;
75342;SDS011;63936;51.006;13.764;2022-12-07T06:12:02;9;;;5;;
75342;SDS011;63936;51.006;13.764;2022-12-07T06:14:02;9;;;5;;
75342;SDS011;63936;51.006;13.764;2022-12-07T06:16:02;11;;;6;;
75342;SDS011;63936;51.006;13.764;2022-12-07T06:18:01;10;;;5;;
75342;SDS011;63936;51.006;13.764;2022-12-07T06:20:01;8;;;4;;
75342;SDS011;63936;51.006;13.764;2022-12-07T06:22:02;11;;;6;;
75342;SDS011;63936;51.006;13.764;2022-12-07T06:24:03;11;;;8;;
75342;SDS011;63936;51.006;13.764;2022-12-07T06:26:02;7;;;5;;
75342;SDS011;63936;51.006;13.764;2022-12-07T06:28:02;9;;;4;;
75342;SDS011;63936;51.006;13.764;2022-12-07T06:30:02;9;;;4;;
75342;SDS011;63936;51.006;13.764;2022-12-07T06:32:02;9;;;4;;
75342;SDS011;63936;51.006;13.764;2022-12-07T06:34:03;9;;;4;;
75342;SDS011;63936;51.006;13.764;2022-12-07T06:36:02;13;;;7;;
75342;SDS011;63936;51.006;13.764;2022-12-07T06:38:02;13;;;7;;
75342;SDS011;63936;51.006;13.764;2022-12-07T06:40:04;20;;;7;;
75342;SDS011;63936;51.006;13.764;2022-12-07T06:42:02;9;;;5;;
75342;SDS011;63936;51.006;13.764;2022-12-07T06:44:02;8;;;4;;
75342;SDS011;63936;51.006;13.764;2022-12-07T06:46:02;8;;;4;;
75342;SDS011;63936;51.006;13.764;2022-12-07T06:48:02;10;;;5;;
75342;SDS011;63936;51.006;13.764;2022-12-07T06:50:04;10;;;6;;
75342;SDS011;63936;51.006;13.764;2022-12-07T06:52:02;8;;;5;;
75342;SDS011;63936;51.006;13.764;2022-12-07T06:54:02;8;;;4;;
75342;SDS011;63936;51.006;13.764;2022-12-07T06:56:02;7;;;3;;
75342;SDS011;63936;51.006;13.764;2022-12-07T06:58:02;7;;;4;;
75342;SDS011;63936;51.006;13.764;2022-12-07T07:00:02;7;;;4;;
75342;SDS011;63936;51.006;13.764;2022-12-07T07:02:02;9;;;6;;
75342;SDS011;63936;51.006;13.764;2022-12-07T07:04:01;10;;;7;;
75342;SDS011;63936;51.006;13.764;2022-12-07T07:06:03;9;;;5;;
75342;SDS011;63936;51.006;13.764;2022-12-07T07:08:02;9;;;7;;
75342;SDS011;63936;51.006;13.764;2022-12-07T07:10:05;7;;;4;;
75342;SDS011;63936;51.006;13.764;2022-12-07T07:12:01;7;;;3;;
75342;SDS011;63936;51.006;13.764;2022-12-07T07:14:02;7;;;3;;
75342;SDS011;63936;51.006;13.764;2022-12-07T07:16:02;9;;;5;;
75342;SDS011;63936;51.006;13.764;2022-12-07T07:18:02;8;;;5;;
75342;SDS011;63936;51.006;13.764;2022-12-07T07:20:03;7;;;4;;
75342;SDS011;63936;51.006;13.764;2022-12-07T07:22:02;7;;;4;;
75342;SDS011;63936;51.006;13.764;2022-12-07T07:24:01;7;;;4;;
75342;SDS011;63936;51.006;13.764;2022-12-07T07:26:01;8;;;4;;
75342;SDS011;63936;51.006;13.764;2022-12-07T07:28:02;7;;;3;;
75342;SDS011;63936;51.006;13.764;2022-12-07T07:30:04;7;;;3;;
75342;SDS011;63936;51.006;13.764;2022-12-07T07:32:01;9;;;7;;
75342;SDS011;63936;51.006;13.764;2022-12-07T07:34:02;9;;;7;;
75342;SDS011;63936;51.006;13.764;2022-12-07T07:36:02;9;;;6;;
75342;SDS011;63936;51.006;13.764;2022-12-07T07:38:02;7;;;5;;
75342;SDS011;63936;51.006;13.764;2022-12-07T07:40:03;7;;;5;;
75342;SDS011;63936;51.006;13.764;2022-12-07T07:42:02;8;;;5;;
75342;SDS011;63936;51.006;13.764;2022-12-07T07:44:01;7;;;4;;
75342;SDS011;63936;51.006;13.764;2022-12-07T07:46:02;7;;;4;;
75342;SDS011;63936;51.006;13.764;2022-12-07T07:48:01;6;;;3;;
75342;SDS011;63936;51.006;13.764;2022-12-07T07:50:01;7;;;3;;
75342;SDS011;63936;51.006;13.764;2022-12-07T07:52:01;9;;;3;;
75342;SDS011;63936;51.006;13.764;2022-12-07T07:54:01;7;;;3;;
75342;SDS011;63936;51.006;13.764;2022-12-07T07:56:02;8;;;3;;
75342;SDS011;63936;51.006;13.764;2022-12-07T07:58:02;8;;;4;;
75342;SDS011;63936;51.006;13.764;2022-12-07T08:00:03;7;;;4;;
75342;SDS011;63936;51.006;13.764;2022-12-07T08:02:01;8;;;4;;
75342;SDS011;63936;51.006;13.764;2022-12-07T08:04:01;9;;;4;;
75342;SDS011;63936;51.006;13.764;2022-12-07T08:06:02;8;;;4;;
75342;SDS011;63936;51.006;13.764;2022-12-07T08:08:02;8;;;4;;
75342;SDS011;63936;51.006;13.764;2022-12-07T08:10:02;7;;;4;;
75342;SDS011;63936;51.006;13.764;2022-12-07T08:12:02;10;;;4;;
75342;SDS011;63936;51.006;13.764;2022-12-07T08:14:02;10;;;5;;
75342;SDS011;63936;51.006;13.764;2022-12-07T08:16:03;10;;;5;;
75342;SDS011;63936;51.006;13.764;2022-12-07T08:18:01;11;;;5;;
75342;SDS011;63936;51.006;13.764;2022-12-07T08:20:02;10;;;6;;
75342;SDS011;63936;51.006;13.764;2022-12-07T08:22:01;9;;;6;;
75342;SDS011;63936;51.006;13.764;2022-12-07T08:24:02;9;;;5;;
75342;SDS011;63936;51.006;13.764;2022-12-07T08:26:02;11;;;5;;
75342;SDS011;63936;51.006;13.764;2022-12-07T08:28:01;9;;;5;;
75342;SDS011;63936;51.006;13.764;2022-12-07T08:30:03;8;;;5;;
75342;SDS011;63936;51.006;13.764;2022-12-07T08:32:01;9;;;5;;
75342;SDS011;63936;51.006;13.764;2022-12-07T08:34:01;9;;;5;;
75342;SDS011;63936;51.006;13.764;2022-12-07T08:36:02;9;;;5;;
75342;SDS011;63936;51.006;13.764;2022-12-07T08:38:02;10;;;6;;
75342;SDS011;63936;51.006;13.764;2022-12-07T08:40:02;10;;;6;;
75342;SDS011;63936;51.006;13.764;2022-12-07T08:42:02;9;;;5;;
75342;SDS011;63936;51.006;13.764;2022-12-07T08:44:03;8;;;5;;
75342;SDS011;63936;51.006;13.764;2022-12-07T08:46:04;9;;;5;;
75342;SDS011;63936;51.006;13.764;2022-12-07T08:48:01;9;;;5;;
75342;SDS011;63936;51.006;13.764;2022-12-07T08:50:03;10;;;6;;
75342;SDS011;63936;51.006;13.764;2022-12-07T08:52:02;10;;;6;;
75342;SDS011;63936;51.006;13.764;2022-12-07T08:54:03;12;;;6;;
75342;SDS011;63936;51.006;13.764;2022-12-07T08:56:03;10;;;5;;
75342;SDS011;63936;51.006;13.764;2022-12-07T08:58:01;10;;;6;;
75342;SDS011;63936;51.006;13.764;2022-12-07T09:00:02;10;;;5;;
75342;SDS011;63936;51.006;13.764;2022-12-07T09:02:02;9;;;5;;
75342;SDS011;63936;51.006;13.764;2022-12-07T09:04:01;9;;;5;;
75342;SDS011;63936;51.006;13.764;2022-12-07T09:06:02;10;;;6;;
75342;SDS011;63936;51.006;13.764;2022-12-07T09:08:02;11;;;6;;
75342;SDS011;63936;51.006;13.764;2022-12-07T09:10:01;9;;;6;;
75342;SDS011;63936;51.006;13.764;2022-12-07T09:12:02;8;;;5;;
75342;SDS011;63936;51.006;13.764;2022-12-07T09:14:01;9;;;5;;
75342;SDS011;63936;51.006;13.764;2022-12-07T09:16:02;9;;;5;;
75342;SDS011;63936;51.006;13.764;2022-12-07T09:18:01;10;;;5;;
75342;SDS011;63936;51.006;13.764;2022-12-07T09:20:04;10;;;6;;
75342;SDS011;63936;51.006;13.764;2022-12-07T09:22:02;9;;;5;;
75342;SDS011;63936;51.006;13.764;2022-12-07T09:24:02;8;;;5;;
75342;SDS011;63936;51.006;13.764;2022-12-07T09:26:03;9;;;5;;
75342;SDS011;63936;51.006;13.764;2022-12-07T09:28:02;10;;;5;;
75342;SDS011;63936;51.006;13.764;2022-12-07T09:30:07;9;;;5;;
75342;SDS011;63936;51.006;13.764;2022-12-07T09:32:01;9;;;5;;
75342;SDS011;63936;51.006;13.764;2022-12-07T09:34:01;10;;;5;;
75342;SDS011;63936;51.006;13.764;2022-12-07T09:36:02;26;;;5;;
75342;SDS011;63936;51.006;13.764;2022-12-07T09:38:01;13;;;5;;
75342;SDS011;63936;51.006;13.764;2022-12-07T09:40:02;9;;;5;;
75342;SDS011;63936;51.006;13.764;2022-12-07T09:42:03;8;;;4;;
75342;SDS011;63936;51.006;13.764;2022-12-07T09:44:03;8;;;4;;
75342;SDS011;63936;51.006;13.764;2022-12-07T09:46:01;7;;;4;;
75342;SDS011;63936;51.006;13.764;2022-12-07T09:48:02;8;;;4;;
75342;SDS011;63936;51.006;13.764;2022-12-07T09:50:04;9;;;4;;
75342;SDS011;63936;51.006;13.764;2022-12-07T09:52:02;8;;;4;;
75342;SDS011;63936;51.006;13.764;2022-12-07T09:54:01;8;;;4;;
75342;SDS011;63936;51.006;13.764;2022-12-07T09:56:02;8;;;5;;
75342;SDS011;63936;51.006;13.764;2022-12-07T09:58:02;9;;;5;;
75342;SDS011;63936;51.006;13.764;2022-12-07T10:00:10;8;;;5;;
75342;SDS011;63936;51.006;13.764;2022-12-07T10:02:19;8;;;4;;
75342;SDS011;63936;51.006;13.764;2022-12-07T10:04:08;9;;;5;;
75342;SDS011;63936;51.006;13.764;2022-12-07T10:06:01;8;;;5;;
75342;SDS011;63936;51.006;13.764;2022-12-07T10:08:01;7;;;5;;
75342;SDS011;63936;51.006;13.764;2022-12-07T10:10:03;8;;;5;;
75342;SDS011;63936;51.006;13.764;2022-12-07T10:12:03;9;;;5;;
75342;SDS011;63936;51.006;13.764;2022-12-07T10:14:10;7;;;4;;
75342;SDS011;63936;51.006;13.764;2022-12-07T10:16:02;8;;;4;;
75342;SDS011;63936;51.006;13.764;2022-12-07T10:18:02;11;;;6;;
75342;SDS011;63936;51.006;13.764;2022-12-07T10:20:19;9;;;6;;
75342;SDS011;63936;51.006;13.764;2022-12-07T10:22:04;9;;;6;;
75342;SDS011;63936;51.006;13.764;2022-12-07T10:24:02;8;;;6;;
75342;SDS011;63936;51.006;13.764;2022-12-07T10:26:16;8;;;5;;
75342;SDS011;63936;51.006;13.764;2022-12-07T10:28:11;9;;;6;;
75342;SDS011;63936;51.006;13.764;2022-12-07T10:30:07;9;;;6;;
75342;SDS011;63936;51.006;13.764;2022-12-07T10:32:02;9;;;6;;
75342;SDS011;63936;51.006;13.764;2022-12-07T10:34:02;9;;;6;;
75342;SDS011;63936;51.006;13.764;2022-12-07T10:36:15;9;;;6;;
75342;SDS011;63936;51.006;13.764;2022-12-07T10:38:01;8;;;5;;
75342;SDS011;63936;51.006;13.764;2022-12-07T10:40:10;10;;;5;;
75342;SDS011;63936;51.006;13.764;2022-12-07T10:42:02;11;;;5;;
75342;SDS011;63936;51.006;13.764;2022-12-07T10:44:01;9;;;5;;
75342;SDS011;63936;51.006;13.764;2022-12-07T10:46:14;10;;;6;;
75342;SDS011;63936;51.006;13.764;2022-12-07T10:48:03;8;;;5;;
75342;SDS011;63936;51.006;13.764;2022-12-07T10:50:07;8;;;4;;
75342;SDS011;63936;51.006;13.764;2022-12-07T10:52:03;9;;;4;;
75342;SDS011;63936;51.006;13.764;2022-12-07T10:54:04;12;;;4;;
75342;SDS011;63936;51.006;13.764;2022-12-07T10:56:05;9;;;4;;
75342;SDS011;63936;51.006;13.764;2022-12-07T10:58:05;8;;;5;;
75342;SDS011;63936;51.006;13.764;2022-12-07T11:00:04;8;;;5;;
75342;SDS011;63936;51.006;13.764;2022-12-07T11:02:03;8;;;5;;
75342;SDS011;63936;51.006;13.764;2022-12-07T11:04:07;8;;;5;;
75342;SDS011;63936;51.006;13.764;2022-12-07T11:06:04;9;;;4;;
75342;SDS011;63936;51.006;13.764;2022-12-07T11:08:03;8;;;5;;
75342;SDS011;63936;51.006;13.764;2022-12-07T11:10:03;10;;;7;;
75342;SDS011;63936;51.006;13.764;2022-12-07T11:12:03;12;;;8;;
75342;SDS011;63936;51.006;13.764;2022-12-07T11:14:03;10;;;6;;
75342;SDS011;63936;51.006;13.764;2022-12-07T11:16:04;8;;;5;;
75342;SDS011;63936;51.006;13.764;2022-12-07T11:18:03;8;;;5;;
75342;SDS011;63936;51.006;13.764;2022-12-07T11:20:02;8;;;5;;
75342;SDS011;63936;51.006;13.764;2022-12-07T11:22:03;8;;;4;;
75342;SDS011;63936;51.006;13.764;2022-12-07T11:24:01;8;;;4;;
75342;SDS011;63936;51.006;13.764;2022-12-07T11:26:02;8;;;4;;
75342;SDS011;63936;51.006;13.764;2022-12-07T11:28:04;7;;;4;;
75342;SDS011;63936;51.006;13.764;2022-12-07T11:30:06;8;;;4;;
75342;SDS011;63936;51.006;13.764;2022-12-07T11:32:04;8;;;4;;
75342;SDS011;63936;51.006;13.764;2022-12-07T11:34:03;8;;;4;;
75342;SDS011;63936;51.006;13.764;2022-12-07T11:36:02;8;;;4;;
75342;SDS011;63936;51.006;13.764;2022-12-07T11:38:07;8;;;4;;
75342;SDS011;63936;51.006;13.764;2022-12-07T11:40:03;7;;;4;;
75342;SDS011;63936;51.006;13.764;2022-12-07T11:42:01;8;;;4;;
75342;SDS011;63936;51.006;13.764;2022-12-07T11:44:02;12;;;5;;
75342;SDS011;63936;51.006;13.764;2022-12-07T11:46:02;9;;;4;;
75342;SDS011;63936;51.006;13.764;2022-12-07T11:48:01;8;;;4;;
75342;SDS011;63936;51.006;13.764;2022-12-07T11:50:07;9;;;4;;
75342;SDS011;63936;51.006;13.764;2022-12-07T11:52:02;9;;;4;;
75342;SDS011;63936;51.006;13.764;2022-12-07T11:54:02;10;;;4;;
75342;SDS011;63936;51.006;13.764;2022-12-07T11:56:03;9;;;4;;
75342;SDS011;63936;51.006;13.764;2022-12-07T11:58:03;8;;;5;;
75342;SDS011;63936;51.006;13.764;2022-12-07T12:00:04;8;;;4;;
75342;SDS011;63936;51.006;13.764;2022-12-07T12:02:03;8;;;4;;
75342;SDS011;63936;51.006;13.764;2022-12-07T12:04:02;8;;;5;;
75342;SDS011;63936;51.006;13.764;2022-12-07T12:06:01;8;;;4;;
75342;SDS011;63936;51.006;13.764;2022-12-07T12:08:03;9;;;5;;
75342;SDS011;63936;51.006;13.764;2022-12-07T12:10:03;9;;;5;;
75342;SDS011;63936;51.006;13.764;2022-12-07T12:12:07;8;;;5;;
75342;SDS011;63936;51.006;13.764;2022-12-07T12:14:05;7;;;4;;
75342;SDS011;63936;51.006;13.764;2022-12-07T12:16:06;7;;;4;;
75342;SDS011;63936;51.006;13.764;2022-12-07T12:18:09;9;;;4;;
75342;SDS011;63936;51.006;13.764;2022-12-07T12:20:04;10;;;4;;
75342;SDS011;63936;51.006;13.764;2022-12-07T12:22:03;8;;;4;;
75342;SDS011;63936;51.006;13.764;2022-12-07T12:24:02;8;;;5;;
75342;SDS011;63936;51.006;13.764;2022-12-07T12:26:01;9;;;5;;
75342;SDS011;63936;51.006;13.764;2022-12-07T12:28:01;8;;;4;;
75342;SDS011;63936;51.006;13.764;2022-12-07T12:30:03;12;;;4;;
75342;SDS011;63936;51.006;13.764;2022-12-07T12:32:05;10;;;4;;
75342;SDS011;63936;51.006;13.764;2022-12-07T12:34:03;8;;;4;;
75342;SDS011;63936;51.006;13.764;2022-12-07T12:36:18;8;;;4;;
75342;SDS011;63936;51.006;13.764;2022-12-07T12:38:33;9;;;4;;
75342;SDS011;63936;51.006;13.764;2022-12-07T12:41:05;9;;;4;;
75342;SDS011;63936;51.006;13.764;2022-12-07T12:42:02;8;;;4;;
75342;SDS011;63936;51.006;13.764;2022-12-07T12:44:02;7;;;4;;
75342;SDS011;63936;51.006;13.764;2022-12-07T12:46:35;8;;;4;;
75342;SDS011;63936;51.006;13.764;2022-12-07T12:48:01;8;;;4;;
75342;SDS011;63936;51.006;13.764;2022-12-07T12:50:11;7;;;4;;
75342;SDS011;63936;51.006;13.764;2022-12-07T12:52:01;7;;;3;;
75342;SDS011;63936;51.006;13.764;2022-12-07T12:54:03;7;;;3;;